createdAt,value
2019-01-22T00:01:06.128Z,27.40
2019-01-22T00:03:46.059Z,27.07
2019-01-22T00:06:25.944Z,26.70
2019-01-22T00:09:05.983Z,27.47
2019-01-22T00:11:46.244Z,25.77
2019-01-22T00:14:26.048Z,25.30
2019-01-22T00:17:05.874Z,27.10
2019-01-22T00:19:45.995Z,26.43
2019-01-22T00:22:26.355Z,25.27
2019-01-22T00:25:06.374Z,27.20
2019-01-22T00:27:46.759Z,27.47
2019-01-22T00:30:27.341Z,28.90
2019-01-22T00:33:08.128Z,28.40
2019-01-22T00:35:48.349Z,26.53
2019-01-22T00:38:28.128Z,27.60
2019-01-22T00:41:10.552Z,28.97
2019-01-22T00:43:50.407Z,29.37
2019-01-22T00:46:30.620Z,29.00
2019-01-22T00:49:10.564Z,30.90
2019-01-22T00:51:50.501Z,28.33
2019-01-22T00:54:30.808Z,32.07
2019-01-22T00:57:11.069Z,32.07
2019-01-22T00:59:51.089Z,31.37
2019-01-22T01:02:30.332Z,32.40
2019-01-22T01:05:10.253Z,34.57
2019-01-22T01:07:50.239Z,33.07
2019-01-22T01:10:30.304Z,34.00
2019-01-22T01:13:10.376Z,32.80
2019-01-22T01:15:50.411Z,35.77
2019-01-22T01:18:30.331Z,32.90
2019-01-22T01:21:10.588Z,33.50
2019-01-22T01:23:50.804Z,30.87
2019-01-22T01:26:31.302Z,34.67
2019-01-22T01:29:11.250Z,33.87
2019-01-22T01:31:50.968Z,34.00
2019-01-22T01:34:30.855Z,32.63
2019-01-22T01:37:10.404Z,34.00
2019-01-22T01:39:50.358Z,32.70
2019-01-22T01:42:30.639Z,32.30
2019-01-22T01:45:11.026Z,31.33
2019-01-22T01:47:51.022Z,31.67
2019-01-22T01:50:30.611Z,30.83
2019-01-22T01:53:10.650Z,33.70
2019-01-22T01:55:50.850Z,32.00
2019-01-22T01:58:30.996Z,29.77
2019-01-22T02:01:10.980Z,28.30
2019-01-22T02:03:50.975Z,30.13
2019-01-22T02:06:31.277Z,30.67
2019-01-22T02:09:10.977Z,29.90
2019-01-22T02:11:51.207Z,30.37
2019-01-22T02:14:31.202Z,31.70
2019-01-22T02:17:11.542Z,31.30
2019-01-22T02:19:51.660Z,30.67
2019-01-22T02:22:31.405Z,30.60
2019-01-22T02:25:11.497Z,30.33
2019-01-22T02:27:51.673Z,33.87
2019-01-22T02:30:31.647Z,32.87
2019-01-22T02:33:11.820Z,32.93
2019-01-22T02:35:52.211Z,33.40
2019-01-22T02:38:31.959Z,32.10
2019-01-22T02:41:12.185Z,32.97
2019-01-22T02:43:51.877Z,32.10
2019-01-22T02:46:31.931Z,29.47
2019-01-22T02:49:12.154Z,28.40
2019-01-22T02:51:52.645Z,28.60
2019-01-22T02:54:32.233Z,28.70
2019-01-22T02:57:12.293Z,28.90
2019-01-22T02:59:51.565Z,29.93
2019-01-22T03:02:31.446Z,28.30
2019-01-22T03:05:11.283Z,29.03
2019-01-22T03:07:51.309Z,27.30
2019-01-22T03:10:31.367Z,25.83
2019-01-22T03:13:11.235Z,25.87
2019-01-22T03:15:51.449Z,28.33
2019-01-22T03:18:31.548Z,27.67
2019-01-22T03:21:11.711Z,27.53
2019-01-22T03:23:51.970Z,26.20
2019-01-22T03:26:31.736Z,27.93
2019-01-22T03:29:10.960Z,25.80
2019-01-22T03:31:51.447Z,26.30
2019-01-22T03:34:31.260Z,27.25
2019-01-22T03:37:11.215Z,27.00
2019-01-22T03:39:51.352Z,26.33
2019-01-22T03:42:31.525Z,26.17
2019-01-22T03:45:11.470Z,25.37
2019-01-22T03:47:51.709Z,26.80
2019-01-22T03:50:31.642Z,25.80
2019-01-22T03:53:11.911Z,27.15
2019-01-22T03:55:51.742Z,26.93
2019-01-22T03:58:31.682Z,26.40
2019-01-22T04:01:11.676Z,26.12
2019-01-22T04:03:51.617Z,25.95
2019-01-22T04:06:31.850Z,27.60
2019-01-22T04:09:11.855Z,26.65
2019-01-22T04:11:52.006Z,26.80
2019-01-22T04:14:32.128Z,26.13
2019-01-22T04:17:12.594Z,26.77
2019-01-22T04:19:52.648Z,27.80
2019-01-22T04:22:32.771Z,27.45
2019-01-22T04:25:12.537Z,28.12
2019-01-22T04:27:52.977Z,29.02
2019-01-22T04:30:32.719Z,29.20
2019-01-22T04:33:12.869Z,28.17
2019-01-22T04:35:52.891Z,28.37
2019-01-22T04:38:33.156Z,27.13
2019-01-22T04:41:13.107Z,27.30
2019-01-22T04:43:53.241Z,26.48
2019-01-22T04:46:33.136Z,26.37
2019-01-22T04:49:13.216Z,27.22
2019-01-22T04:51:53.504Z,27.27
2019-01-22T04:54:33.370Z,27.32
2019-01-22T04:57:14.241Z,26.80
2019-01-22T04:59:54.056Z,27.27
2019-01-22T05:02:34.196Z,29.50
2019-01-22T05:05:14.491Z,28.47
2019-01-22T05:07:54.620Z,27.43
2019-01-22T05:10:34.618Z,28.85
2019-01-22T05:13:14.632Z,27.30
2019-01-22T05:15:54.532Z,28.95
2019-01-22T05:18:34.739Z,28.17
2019-01-22T05:21:14.978Z,29.50
2019-01-22T05:23:54.509Z,28.60
2019-01-22T05:26:34.524Z,28.10
2019-01-22T05:29:14.515Z,27.40
2019-01-22T05:31:54.597Z,27.48
2019-01-22T05:34:35.176Z,26.70
2019-01-22T05:37:14.761Z,27.40
2019-01-22T05:39:54.816Z,26.45
2019-01-22T05:42:34.509Z,28.00
2019-01-22T05:45:14.174Z,26.80
2019-01-22T05:47:54.144Z,28.90
2019-01-22T05:50:34.130Z,26.93
2019-01-22T05:53:14.326Z,26.75
2019-01-22T05:55:54.381Z,28.20
2019-01-22T05:58:34.805Z,27.00
2019-01-22T06:01:14.672Z,26.97
2019-01-22T06:03:54.221Z,26.02
2019-01-22T06:06:34.022Z,28.45
2019-01-22T06:09:14.124Z,27.30
2019-01-22T06:11:54.138Z,27.50
2019-01-22T06:14:34.523Z,28.65
2019-01-22T06:17:14.111Z,27.95
2019-01-22T06:19:53.352Z,28.25
2019-01-22T06:22:33.478Z,28.07
2019-01-22T06:25:12.821Z,28.02
2019-01-22T06:27:52.180Z,28.85
2019-01-22T06:30:32.385Z,28.40
2019-01-22T06:33:12.779Z,28.38
2019-01-22T06:35:52.783Z,28.23
2019-01-22T06:38:32.624Z,29.90
2019-01-22T06:41:12.593Z,27.93
2019-01-22T06:43:52.553Z,28.50
2019-01-22T06:46:32.573Z,26.97
2019-01-22T06:49:11.819Z,28.45
2019-01-22T06:51:52.000Z,27.85
2019-01-22T06:54:32.204Z,28.55
2019-01-22T06:57:11.708Z,30.35
2019-01-22T06:59:51.731Z,29.75
2019-01-22T07:02:31.748Z,27.58
2019-01-22T07:05:12.054Z,27.77
2019-01-22T07:07:52.052Z,29.30
2019-01-22T07:10:32.189Z,28.20
2019-01-22T07:13:12.142Z,28.17
2019-01-22T07:15:52.458Z,26.75
2019-01-22T07:18:32.348Z,26.75
2019-01-22T07:21:12.821Z,28.75
2019-01-22T07:23:52.808Z,27.62
2019-01-22T07:26:32.637Z,26.75
2019-01-22T07:29:12.816Z,27.27
2019-01-22T07:31:52.867Z,27.82
2019-01-22T07:34:33.257Z,28.70
2019-01-22T07:37:12.963Z,27.58
2019-01-22T07:39:53.329Z,28.65
2019-01-22T07:42:33.241Z,27.50
2019-01-22T07:45:13.443Z,26.70
2019-01-22T07:47:53.658Z,27.00
2019-01-22T07:50:33.622Z,28.45
2019-01-22T07:53:13.565Z,26.37
2019-01-22T07:55:53.696Z,30.20
2019-01-22T07:58:33.795Z,29.40
2019-01-22T08:01:16.344Z,29.10
2019-01-22T08:03:57.660Z,27.75
2019-01-22T08:06:39.592Z,29.48
2019-01-22T08:09:19.689Z,28.05
2019-01-22T08:11:59.606Z,29.77
2019-01-22T08:14:39.758Z,28.30
2019-01-22T08:17:19.933Z,28.23
2019-01-22T08:19:59.736Z,28.60
2019-01-22T08:22:40.011Z,27.58
2019-01-22T08:25:20.129Z,29.57
2019-01-22T08:28:00.274Z,27.73
2019-01-22T08:30:41.018Z,28.32
2019-01-22T08:33:20.968Z,29.63
2019-01-22T08:36:00.985Z,25.32
2019-01-22T08:38:40.252Z,26.35
2019-01-22T08:41:20.263Z,27.67
2019-01-22T08:44:00.453Z,26.60
2019-01-22T08:46:40.403Z,26.57
2019-01-22T08:49:20.395Z,25.55
2019-01-22T08:52:00.355Z,27.77
2019-01-22T08:54:40.651Z,25.08
2019-01-22T08:57:20.776Z,25.00
2019-01-22T09:00:00.540Z,25.57
2019-01-22T09:02:40.356Z,25.80
2019-01-22T09:05:20.357Z,24.35
2019-01-22T09:08:00.918Z,24.45
2019-01-22T09:10:40.525Z,25.37
2019-01-22T09:13:20.521Z,24.40
2019-01-22T09:16:00.511Z,24.72
2019-01-22T09:18:40.767Z,24.65
2019-01-22T09:21:20.518Z,22.80
2019-01-22T09:24:01.829Z,25.70
2019-01-22T09:26:42.165Z,24.45
2019-01-22T09:29:22.501Z,26.83
2019-01-22T09:32:03.073Z,24.27
2019-01-22T09:34:43.036Z,25.17
2019-01-22T09:37:22.995Z,23.93
2019-01-22T09:40:03.098Z,23.50
2019-01-22T09:42:43.139Z,24.40
2019-01-22T09:45:23.313Z,24.30
2019-01-22T09:48:03.325Z,22.93
2019-01-22T09:50:43.343Z,25.17
2019-01-22T09:53:23.458Z,25.57
2019-01-22T09:56:03.511Z,25.53
2019-01-22T09:58:43.787Z,24.90
2019-01-22T10:01:23.715Z,26.97
2019-01-22T10:04:03.895Z,25.30
2019-01-22T10:06:43.850Z,27.15
2019-01-22T10:09:23.962Z,25.10
2019-01-22T10:12:03.732Z,23.40
2019-01-22T10:14:43.835Z,25.30
2019-01-22T10:17:23.767Z,27.10
2019-01-22T10:20:03.853Z,25.57
2019-01-22T10:22:43.964Z,25.10
2019-01-22T10:25:29.426Z,25.20
2019-01-22T10:28:06.169Z,24.63
2019-01-22T10:30:45.997Z,25.17
2019-01-22T10:33:26.088Z,24.70
2019-01-22T10:36:05.979Z,25.77
2019-01-22T10:38:45.975Z,23.37
2019-01-22T10:41:26.009Z,24.97
2019-01-22T10:44:07.005Z,23.77
2019-01-22T10:46:47.200Z,24.73
2019-01-22T10:49:27.205Z,24.67
2019-01-22T10:52:06.522Z,25.12
2019-01-22T10:54:46.725Z,25.90
2019-01-22T10:57:26.830Z,23.97
2019-01-22T11:00:06.836Z,24.90
2019-01-22T11:02:48.721Z,24.00
2019-01-22T11:05:28.952Z,25.40
2019-01-22T11:08:08.875Z,24.80
2019-01-22T11:10:48.381Z,23.30
2019-01-22T11:13:28.305Z,22.93
2019-01-22T11:16:08.565Z,23.07
2019-01-22T11:18:48.492Z,24.13
2019-01-22T11:21:28.500Z,23.43
2019-01-22T11:24:08.718Z,22.77
2019-01-22T11:26:48.743Z,23.03
2019-01-22T11:29:28.757Z,23.23
2019-01-22T11:32:08.914Z,23.60
2019-01-22T11:34:49.083Z,22.10
2019-01-22T11:37:29.245Z,22.87
2019-01-22T11:40:09.403Z,22.33
2019-01-22T11:42:49.299Z,23.37
2019-01-22T11:45:29.261Z,22.53
2019-01-22T11:48:09.480Z,23.50
2019-01-22T11:50:49.545Z,22.30
2019-01-22T11:53:29.481Z,23.80
2019-01-22T11:56:09.607Z,22.80
2019-01-22T11:58:49.742Z,22.33
2019-01-22T12:01:29.858Z,22.93
2019-01-22T12:04:10.038Z,22.73
2019-01-22T12:06:49.745Z,21.40
2019-01-22T12:09:29.347Z,21.30
2019-01-22T12:12:09.177Z,22.80
2019-01-22T12:14:49.018Z,21.57
2019-01-22T12:17:29.042Z,21.53
2019-01-22T12:20:09.106Z,21.20
2019-01-22T12:22:49.539Z,22.60
2019-01-22T12:25:29.175Z,22.83
2019-01-22T12:28:09.330Z,21.63
2019-01-22T12:30:49.408Z,21.47
2019-01-22T12:33:29.478Z,20.93
2019-01-22T12:36:09.490Z,20.90
2019-01-22T12:38:49.608Z,21.13
2019-01-22T12:41:29.697Z,21.33
2019-01-22T12:44:09.679Z,19.83
2019-01-22T12:46:49.748Z,21.50
2019-01-22T12:49:29.925Z,20.23
2019-01-22T12:52:09.968Z,21.73
2019-01-22T12:54:49.973Z,20.67
2019-01-22T12:57:30.144Z,21.90
2019-01-22T13:00:10.328Z,21.53
2019-01-22T13:02:50.197Z,22.90
2019-01-22T13:05:30.457Z,23.57
2019-01-22T13:08:10.493Z,23.03
2019-01-22T13:10:50.674Z,20.80
2019-01-22T13:13:30.720Z,22.53
2019-01-22T13:16:10.736Z,21.80
2019-01-22T13:18:50.288Z,21.40
2019-01-22T13:21:29.844Z,23.27
2019-01-22T13:24:10.054Z,21.10
2019-01-22T13:26:49.842Z,20.33
2019-01-22T13:29:29.680Z,21.50
2019-01-22T13:32:09.751Z,21.23
2019-01-22T13:34:49.629Z,21.53
2019-01-22T13:37:29.514Z,21.63
2019-01-22T13:40:09.509Z,21.70
2019-01-22T13:42:49.372Z,21.47
2019-01-22T13:45:29.446Z,21.23
2019-01-22T13:48:09.757Z,22.23
2019-01-22T13:50:49.470Z,23.47
2019-01-22T13:53:29.745Z,21.20
2019-01-22T13:56:09.454Z,22.90
2019-01-22T13:58:47.194Z,22.20
2019-01-22T14:01:34.431Z,23.43
2019-01-22T14:04:14.167Z,24.03
2019-01-22T14:06:54.083Z,23.60
2019-01-22T14:09:34.277Z,22.47
2019-01-22T14:12:14.509Z,22.93
2019-01-22T14:14:54.565Z,22.47
2019-01-22T14:17:34.600Z,22.97
2019-01-22T14:20:14.601Z,23.60
2019-01-22T14:22:54.720Z,23.77
2019-01-22T14:25:34.641Z,23.60
2019-01-22T14:28:14.446Z,23.70
2019-01-22T14:30:54.628Z,23.33
2019-01-22T14:33:34.362Z,25.23
2019-01-22T14:36:14.828Z,24.27
2019-01-22T14:38:54.507Z,24.17
2019-01-22T14:41:34.559Z,24.30
2019-01-22T14:44:14.590Z,24.60
2019-01-22T14:46:54.566Z,23.97
2019-01-22T14:49:34.607Z,24.23
2019-01-22T14:52:14.659Z,23.90
2019-01-22T14:54:54.633Z,25.00
2019-01-22T14:57:34.551Z,24.97
2019-01-22T15:00:14.856Z,24.97
2019-01-22T15:02:54.747Z,23.97
2019-01-22T15:05:35.189Z,23.73
2019-01-22T15:11:14.303Z,23.80
2019-01-22T15:13:54.492Z,23.83
2019-01-22T15:16:35.045Z,23.63
2019-01-22T15:19:14.735Z,22.90
2019-01-22T15:21:54.566Z,24.30
2019-01-22T15:24:35.083Z,22.90
2019-01-22T15:27:14.924Z,24.60
2019-01-22T15:29:55.017Z,24.10
2019-01-22T15:32:34.375Z,24.40
2019-01-22T15:35:11.861Z,22.80
2019-01-22T15:37:58.193Z,22.57
2019-01-22T15:40:37.854Z,21.80
2019-01-22T15:43:17.869Z,22.07
2019-01-22T15:45:58.077Z,22.10
2019-01-22T15:48:37.884Z,22.80
2019-01-22T15:51:17.860Z,22.43
2019-01-22T15:53:57.921Z,23.00
2019-01-22T15:56:37.862Z,22.77
2019-01-22T15:59:18.019Z,25.53
2019-01-22T16:01:58.003Z,23.70
2019-01-22T16:04:38.315Z,25.03
2019-01-22T16:07:17.961Z,25.07
2019-01-22T16:09:58.107Z,23.13
2019-01-22T16:12:38.135Z,24.50
2019-01-22T16:15:18.276Z,22.40
2019-01-22T16:17:58.398Z,21.73
2019-01-22T16:20:38.300Z,23.53
2019-01-22T16:23:20.887Z,23.00
2019-01-22T16:26:00.478Z,25.07
2019-01-22T16:28:40.321Z,24.80
2019-01-22T16:31:20.426Z,25.23
2019-01-22T16:34:02.277Z,24.47
2019-01-22T16:36:41.735Z,30.90
2019-01-22T16:39:21.854Z,27.90
2019-01-22T16:42:01.826Z,24.93
2019-01-22T16:44:41.885Z,24.77
2019-01-22T16:47:21.855Z,23.00
2019-01-22T16:50:02.224Z,22.60
2019-01-22T16:52:41.998Z,22.87
2019-01-22T16:55:21.959Z,22.70
2019-01-22T16:58:02.175Z,24.10
2019-01-22T17:00:42.273Z,24.47
2019-01-22T17:03:22.758Z,22.50
2019-01-22T17:06:02.330Z,24.07
2019-01-22T17:08:42.567Z,23.37
2019-01-22T17:11:22.468Z,23.87
2019-01-22T17:14:02.458Z,24.90
2019-01-22T17:16:42.450Z,24.93
2019-01-22T17:19:22.885Z,25.40
2019-01-22T17:22:03.062Z,23.67
2019-01-22T17:24:42.972Z,24.70
2019-01-22T17:27:23.213Z,24.95
2019-01-22T17:30:02.970Z,27.50
2019-01-22T17:32:44.932Z,24.95
2019-01-22T17:35:25.301Z,25.63
2019-01-22T17:38:05.096Z,26.40
2019-01-22T17:40:45.072Z,24.07
2019-01-22T17:43:25.311Z,25.75
2019-01-22T17:46:04.903Z,27.32
2019-01-22T17:48:44.982Z,25.82
2019-01-22T17:51:24.778Z,24.00
2019-01-22T17:54:04.891Z,26.60
2019-01-22T17:56:45.014Z,23.83
2019-01-22T17:59:24.360Z,25.30
2019-01-22T18:02:04.561Z,25.77
2019-01-22T18:04:44.514Z,24.27
2019-01-22T18:07:24.835Z,25.02
2019-01-22T18:10:04.563Z,24.95
2019-01-22T18:12:44.659Z,25.53
2019-01-22T18:15:24.854Z,26.27
2019-01-22T18:18:04.522Z,25.10
2019-01-22T18:20:44.722Z,25.08
2019-01-22T18:23:24.742Z,24.07
2019-01-22T18:26:04.700Z,25.27
2019-01-22T18:28:44.688Z,26.30
2019-01-22T18:31:24.745Z,25.60
2019-01-22T18:34:05.244Z,26.90
2019-01-22T18:36:45.223Z,23.67
2019-01-22T18:39:25.576Z,25.05
2019-01-22T18:42:05.408Z,27.60
2019-01-22T18:44:45.401Z,28.75
2019-01-22T18:47:25.082Z,28.35
2019-01-22T18:50:05.492Z,25.60
2019-01-22T18:52:45.270Z,26.68
2019-01-22T18:55:25.608Z,25.82
2019-01-22T18:58:05.562Z,24.80
2019-01-22T19:00:45.254Z,25.95
2019-01-22T19:03:25.004Z,24.65
2019-01-22T19:06:05.442Z,24.37
2019-01-22T19:08:45.347Z,26.57
2019-01-22T19:11:25.452Z,25.90
2019-01-22T19:14:05.953Z,31.12
2019-01-22T19:16:45.646Z,27.48
2019-01-22T19:19:24.915Z,28.12
2019-01-22T19:22:05.195Z,26.12
2019-01-22T19:24:45.059Z,26.25
2019-01-22T19:27:25.041Z,28.60
2019-01-22T19:30:05.523Z,25.50
2019-01-22T19:32:45.561Z,25.88
2019-01-22T19:35:25.725Z,25.85
2019-01-22T19:38:05.686Z,28.60
2019-01-22T19:40:47.004Z,30.05
2019-01-22T19:43:26.190Z,28.20
2019-01-22T19:46:06.643Z,27.67
2019-01-22T19:48:46.653Z,27.67
2019-01-22T19:51:26.903Z,26.52
2019-01-22T19:54:07.402Z,28.83
2019-01-22T19:56:47.296Z,34.20
2019-01-22T19:59:27.093Z,32.23
2019-01-22T20:02:07.374Z,29.02
2019-01-22T20:04:47.875Z,32.33
2019-01-22T20:07:28.018Z,29.27
2019-01-22T20:10:07.747Z,27.93
2019-01-22T20:12:47.638Z,29.12
2019-01-22T20:15:27.665Z,30.50
2019-01-22T20:18:07.649Z,30.43
2019-01-22T20:20:47.864Z,32.55
2019-01-22T20:23:28.904Z,30.23
2019-01-22T20:26:08.792Z,26.33
2019-01-22T20:28:48.733Z,29.15
2019-01-22T20:31:28.743Z,26.65
2019-01-22T20:34:08.855Z,29.00
2019-01-22T20:36:49.318Z,28.10
2019-01-22T20:39:29.166Z,27.55
2019-01-22T20:42:09.069Z,28.42
2019-01-22T20:44:46.498Z,27.73
2019-01-22T20:47:33.052Z,27.85
2019-01-22T20:50:19.142Z,26.65
2019-01-22T20:52:55.532Z,28.25
2019-01-22T20:55:35.717Z,26.82
2019-01-22T20:58:15.578Z,30.50
2019-01-22T21:00:56.024Z,28.15
2019-01-22T21:03:35.686Z,32.23
2019-01-22T21:06:16.013Z,33.48
2019-01-22T21:08:56.022Z,30.05
2019-01-22T21:11:36.127Z,29.90
2019-01-22T21:14:15.990Z,32.20
2019-01-22T21:16:55.975Z,29.10
2019-01-22T21:19:36.721Z,30.90
2019-01-22T21:22:16.920Z,31.20
2019-01-22T21:24:56.830Z,31.45
2019-01-22T21:27:36.988Z,29.12
2019-01-22T21:30:16.899Z,30.60
2019-01-22T21:32:57.240Z,30.85
2019-01-22T21:35:38.314Z,31.55
2019-01-22T21:38:18.214Z,28.10
2019-01-22T21:40:59.162Z,28.73
2019-01-22T21:43:39.224Z,30.32
2019-01-22T21:46:19.147Z,29.07
2019-01-22T21:48:59.343Z,28.87
2019-01-22T21:51:39.297Z,31.02
2019-01-22T21:54:19.278Z,36.03
2019-01-22T21:56:59.337Z,30.10
2019-01-22T21:59:39.731Z,29.15
2019-01-22T22:02:19.410Z,30.70
2019-01-22T22:04:59.606Z,31.85
2019-01-22T22:07:39.475Z,32.35
2019-01-22T22:10:19.487Z,35.60
2019-01-22T22:12:59.645Z,29.07
2019-01-22T22:15:39.760Z,31.45
2019-01-22T22:18:19.805Z,34.38
2019-01-22T22:20:59.873Z,31.48
2019-01-22T22:23:39.786Z,33.35
2019-01-22T22:26:19.981Z,30.77
2019-01-22T22:28:59.215Z,35.68
2019-01-22T22:31:39.164Z,31.57
2019-01-22T22:34:19.377Z,29.25
2019-01-22T22:36:59.679Z,33.80
2019-01-22T22:39:39.587Z,29.77
2019-01-22T22:42:19.737Z,33.90
2019-01-22T22:44:59.855Z,29.70
2019-01-22T22:47:39.848Z,31.73
2019-01-22T22:50:19.955Z,31.75
2019-01-22T22:52:59.944Z,31.77
2019-01-22T22:55:40.037Z,31.35
2019-01-22T22:58:21.981Z,30.15
2019-01-22T23:01:02.003Z,32.50
2019-01-22T23:03:41.974Z,29.75
2019-01-22T23:06:22.084Z,30.15
2019-01-22T23:09:04.222Z,27.10
2019-01-22T23:11:45.440Z,29.07
2019-01-22T23:14:25.311Z,28.00
2019-01-22T23:17:05.198Z,28.52
2019-01-22T23:19:45.441Z,29.52
2019-01-22T23:22:25.540Z,28.95
2019-01-22T23:25:05.701Z,28.60
2019-01-22T23:27:45.703Z,28.57
2019-01-22T23:30:25.982Z,30.55
2019-01-22T23:33:05.480Z,29.70
2019-01-22T23:35:45.602Z,28.25
2019-01-22T23:38:25.580Z,30.45
2019-01-22T23:41:05.451Z,30.62
2019-01-22T23:43:45.877Z,28.23
2019-01-22T23:46:25.611Z,28.35
2019-01-22T23:49:05.786Z,28.20
2019-01-22T23:51:45.343Z,28.67
2019-01-22T23:54:25.080Z,30.23
2019-01-22T23:57:05.332Z,29.02
2019-01-22T23:59:45.837Z,28.47
